Dawn Merchant — MYIL6 — position and weather

sailwx.info

Track history (hours):
 
Tides and Currents Weather Stations Pressure Air Temp Water Temp Dewpoint Dewpoint Depression Visibility Wind Speed Wind Dir Waves Ship Positions

Dawn Merchant

Operator: Norfolk Line

Last reported at 2015-Sep-12 21:14 UTC. Time now 2017-Apr-29 13:22 UTC.
Position S 04°55' E 111°46'.
Warning: this ship's position is years out of date!

Length 180 m; draft 5.8 m.

Type: Passenger vessel. MMSI: 232197000.

Date/timePositionNaut miles runAvg speedWind from/ knotsBaromVisibWave heightAir tempDewpointWater temp
2015-Sep-12 21:14S 04°55' E 111°46'1319.1
2015-Sep-12 20:33S 04°49' E 111°35'1919.1
2015-Sep-12 19:33S 04°40' E 111°18'1919.2
2015-Sep-12 18:33S 04°31' E 111°01'2019.5
2015-Sep-12 17:33S 04°23' E 110°43'52416.9
2015-Sep-11 10:31N 01°15' E 104°02'1718.2
2015-Sep-11 09:33N 01°08' E 103°46'11 9.8
2015-Sep-11 08:24N 01°11' E 103°35'5 5.2
2015-Sep-11 07:28N 01°13' E 103°39'1 0.5
2015-Sep-11 06:08N 01°14' E 103°39'4 2.1
2015-Sep-11 04:12N 01°18' E 103°40'0 0.0
2015-Sep-11 00:18N 01°18' E 103°40'0 0.0
2015-Sep-10 01:33N 01°18' E 103°40'0 0.0
2015-Sep-09 22:07N 01°18' E 103°40'0 0.0
2015-Sep-09 02:17N 01°18' E 103°40'0 0.0
2015-Sep-09 01:28N 01°18' E 103°40'0 0.0
2015-Sep-08 10:17N 01°18' E 103°40'0 0.0
2015-Sep-08 06:27N 01°18' E 103°40'0 0.0
2015-Sep-07 10:20N 01°18' E 103°40'0 0.0
2015-Sep-07 04:10N 01°18' E 103°40'0 0.0
2015-Sep-06 17:06N 01°18' E 103°40'0 0.0
2015-Sep-06 16:32N 01°18' E 103°40'0 0.0
2015-Sep-06 01:17N 01°17' E 103°41'2 2.9
2015-Sep-06 00:28N 01°16' E 103°39'6 7.0
2015-Sep-05 23:33N 01°16' E 103°45'5 4.7
2015-Sep-05 22:33N 01°13' E 103°49'0 0.0
2015-Sep-05 21:31N 01°13' E 103°49'0 0.0
2015-Sep-05 20:27N 01°13' E 103°49'0 0.0
2015-Sep-05 19:30N 01°13' E 103°49'0 0.0
2015-Sep-05 17:30N 01°13' E 103°49'0 0.0
2015-Sep-05 16:30N 01°13' E 103°49'0 0.0
2015-Sep-05 15:31N 01°13' E 103°49'0 0.0
2015-Sep-05 14:33N 01°13' E 103°49'0 0.1
2015-Sep-05 13:28N 01°13' E 103°49'0 0.0
2015-Sep-05 12:30N 01°13' E 103°49'0 0.0
2015-Sep-05 11:30N 01°13' E 103°49'0 0.0
2015-Sep-05 10:23N 01°13' E 103°49'0 0.1
2015-Sep-05 09:24N 01°13' E 103°49'0 0.0
2015-Sep-05 08:26N 01°13' E 103°49'0 0.0
2015-Sep-05 07:20N 01°13' E 103°49'0 0.1
2015-Sep-05 06:28N 01°13' E 103°49'0 0.0
2015-Sep-05 05:26N 01°13' E 103°49'0 0.1
2015-Sep-05 04:29N 01°13' E 103°49'0 0.0
2015-Sep-05 03:31N 01°13' E 103°49'0 0.0
2015-Sep-05 02:29N 01°13' E 103°49'0 0.0
2015-Sep-05 01:31N 01°13' E 103°49'0 0.0
2015-Sep-05 00:30N 01°13' E 103°49'0 0.0
2015-Sep-04 23:33N 01°13' E 103°49'0 0.0
2015-Sep-04 22:24N 01°13' E 103°49'0 0.0
2015-Sep-04 21:27N 01°13' E 103°49'0 0.1
2015-Sep-04 20:33N 01°13' E 103°49'0 0.1
2015-Sep-04 19:32N 01°13' E 103°49'0 0.0
2015-Sep-04 18:31N 01°13' E 103°49'0 0.0
2015-Sep-04 17:32N 01°13' E 103°49'0 0.0
2015-Sep-04 16:26N 01°13' E 103°49'0 0.0
2015-Sep-04 15:27N 01°13' E 103°49'0 0.4
2015-Sep-04 14:33N 01°13' E 103°50'5 4.6
2015-Sep-04 13:33N 01°13' E 103°54'7 6.7
2015-Sep-04 12:33N 01°15' E 104°00'2 0.3
2015-Sep-04 06:33N 01°15' E 104°02'1616.0
2015-Sep-04 05:33N 01°09' E 103°47'9 4.5
2015-Sep-04 03:33N 01°14' E 103°40'1 0.7
2015-Sep-04 01:32N 01°15' E 103°39'3 0.2
2015-Sep-03 07:20N 01°18' E 103°40'  
Track history (hours):
 
Tides and Currents Weather Stations Pressure Air Temp Water Temp Dewpoint Dewpoint Depression Visibility Wind Speed Wind Dir Waves Ship Positions

Dawn Merchant

Operator: Norfolk Line

Last reported at 2015-Sep-12 21:14 UTC. Time now 2017-Apr-29 13:22 UTC.
Position S 04°55' E 111°46'.
Warning: this ship's position is years out of date!

Length 180 m; draft 5.8 m.

Type: Passenger vessel. MMSI: 232197000.

Date/timePositionNaut miles runAvg speedWind from/ knotsBaromVisibWave heightAir tempDewpointWater temp
2015-Sep-12 21:14S 04°55' E 111°46'1319.1
2015-Sep-12 20:33S 04°49' E 111°35'1919.1
2015-Sep-12 19:33S 04°40' E 111°18'1919.2
2015-Sep-12 18:33S 04°31' E 111°01'2019.5
2015-Sep-12 17:33S 04°23' E 110°43'52416.9
2015-Sep-11 10:31N 01°15' E 104°02'1718.2
2015-Sep-11 09:33N 01°08' E 103°46'11 9.8
2015-Sep-11 08:24N 01°11' E 103°35'5 5.2
2015-Sep-11 07:28N 01°13' E 103°39'1 0.5
2015-Sep-11 06:08N 01°14' E 103°39'4 2.1
2015-Sep-11 04:12N 01°18' E 103°40'0 0.0
2015-Sep-11 00:18N 01°18' E 103°40'0 0.0
2015-Sep-10 01:33N 01°18' E 103°40'0 0.0
2015-Sep-09 22:07N 01°18' E 103°40'0 0.0
2015-Sep-09 02:17N 01°18' E 103°40'0 0.0
2015-Sep-09 01:28N 01°18' E 103°40'0 0.0
2015-Sep-08 10:17N 01°18' E 103°40'0 0.0
2015-Sep-08 06:27N 01°18' E 103°40'0 0.0
2015-Sep-07 10:20N 01°18' E 103°40'0 0.0
2015-Sep-07 04:10N 01°18' E 103°40'0 0.0
2015-Sep-06 17:06N 01°18' E 103°40'0 0.0
2015-Sep-06 16:32N 01°18' E 103°40'0 0.0
2015-Sep-06 01:17N 01°17' E 103°41'2 2.9
2015-Sep-06 00:28N 01°16' E 103°39'6 7.0
2015-Sep-05 23:33N 01°16' E 103°45'5 4.7
2015-Sep-05 22:33N 01°13' E 103°49'0 0.0
2015-Sep-05 21:31N 01°13' E 103°49'0 0.0
2015-Sep-05 20:27N 01°13' E 103°49'0 0.0
2015-Sep-05 19:30N 01°13' E 103°49'0 0.0
2015-Sep-05 17:30N 01°13' E 103°49'0 0.0
2015-Sep-05 16:30N 01°13' E 103°49'0 0.0
2015-Sep-05 15:31N 01°13' E 103°49'0 0.0
2015-Sep-05 14:33N 01°13' E 103°49'0 0.1
2015-Sep-05 13:28N 01°13' E 103°49'0 0.0
2015-Sep-05 12:30N 01°13' E 103°49'0 0.0
2015-Sep-05 11:30N 01°13' E 103°49'0 0.0
2015-Sep-05 10:23N 01°13' E 103°49'0 0.1
2015-Sep-05 09:24N 01°13' E 103°49'0 0.0
2015-Sep-05 08:26N 01°13' E 103°49'0 0.0
2015-Sep-05 07:20N 01°13' E 103°49'0 0.1
2015-Sep-05 06:28N 01°13' E 103°49'0 0.0
2015-Sep-05 05:26N 01°13' E 103°49'0 0.1
2015-Sep-05 04:29N 01°13' E 103°49'0 0.0
2015-Sep-05 03:31N 01°13' E 103°49'0 0.0
2015-Sep-05 02:29N 01°13' E 103°49'0 0.0
2015-Sep-05 01:31N 01°13' E 103°49'0 0.0
2015-Sep-05 00:30N 01°13' E 103°49'0 0.0
2015-Sep-04 23:33N 01°13' E 103°49'0 0.0
2015-Sep-04 22:24N 01°13' E 103°49'0 0.0
2015-Sep-04 21:27N 01°13' E 103°49'0 0.1
2015-Sep-04 20:33N 01°13' E 103°49'0 0.1
2015-Sep-04 19:32N 01°13' E 103°49'0 0.0
2015-Sep-04 18:31N 01°13' E 103°49'0 0.0
2015-Sep-04 17:32N 01°13' E 103°49'0 0.0
2015-Sep-04 16:26N 01°13' E 103°49'0 0.0
2015-Sep-04 15:27N 01°13' E 103°49'0 0.4
2015-Sep-04 14:33N 01°13' E 103°50'5 4.6
2015-Sep-04 13:33N 01°13' E 103°54'7 6.7
2015-Sep-04 12:33N 01°15' E 104°00'2 0.3
2015-Sep-04 06:33N 01°15' E 104°02'1616.0
2015-Sep-04 05:33N 01°09' E 103°47'9 4.5
2015-Sep-04 03:33N 01°14' E 103°40'1 0.7
2015-Sep-04 01:32N 01°15' E 103°39'3 0.2
2015-Sep-03 07:20N 01°18' E 103°40'  

Dump ship's entire track history